x

West Sea Otter (46204) Wave Buoy

2:00 - Wed 10th Feb 2016 All times are PST. -8 hours from GMT.

  • Sig Wave height 9.2ft
  • Peak Period 14s
  • Wind
    20mph, 25mph gusts
  • Sea Temp 48°f
  • Air Temp 50°f
  • Sea Pressure 1013.4mb
  • West Sea Otter
  • West Sea Otter

More Historic Weather Station data

Upgrade to MSW Pro to gain access to the past 30 days of data for over 8000 Wavebouys and Weather Stations around the globe.

Join Pro

Comparision Forecast

View Surf forecast
   
mer. 02/10 2:00 9ft 14s 20 25 mph 1013.4mb 48f 50f
1:00 9.5ft 7s 25 34 mph 1011.9mb 48f 51f
12:00 9ft 14s 22 27 mph 1010.4mb 48f 49f
11:00 8ft 14s 22 25 mph 1010.3mb 48f 50f
10:00 7ft 15s 22 25 mph 1010mb 48f 51f
9:00 6.5ft 11s 20 22 mph 1010.2mb 48f 50f
8:00 6ft 10s 18 20 mph 1010.2mb 49f 50f
7:00 6ft 11s 20 25 mph 1010.4mb 48f 52f
6:00 6ft 11s 13 18 mph 1011.1mb 49f 50f
5:00 6ft 11s 18 20 mph 1011.2mb 48f 50f
4:00 6.5ft 11s 18 22 mph 1012mb 48f 50f
3:00 7.5ft 12s 18 22 mph 1013mb 48f 50f
2:00 8ft 12s 22 27 mph 1013.4mb 48f 50f
1:00 8.5ft 11s 22 29 mph 1014.1mb 48f 50f
12:00 9ft 11s 27 34 mph 1013.7mb 48f 50f
mar. 02/09 11:00 9.5ft 6s 31 40 mph 1013.5mb 48f 50f
10:00 9ft 10s 31 38 mph 1013mb 48f 50f
9:00 9ft 7s 31 38 mph 1012.7mb 48f 51f
8:00 11ft 7s 27 34 mph 1011.9mb 48f 52f
7:00 12ft 7s 38 49 mph 1010.8mb 49f 51f
6:00 10.5ft 12s 38 49 mph 1010.5mb 48f 52f
5:00 8ft 12s 27 34 mph 1010.7mb 48f 53f
4:00 9ft 13s 16 18 mph 1010.7mb 48f 52f
3:00 9ft 12s 18 27 mph 1011mb 47f 53f
2:00 9ft 13s 27 34 mph 1010.2mb 47f 54f
1:00 8ft 12s 25 29 mph 1011.5mb 47f 53f
12:00 9.5ft 12s 18 20 mph 1013.1mb 47f 52f
11:00 10ft 12s 22 27 mph 1013.6mb 47f 52f
10:00 10ft 13s 20 22 mph 1014mb 47f 51f
9:00 11ft 12s 18 22 mph 1014.6mb 47f 50f
8:00 12.5ft 12s 20 25 mph 1015mb 47f 50f
7:00 10ft 12s 20 27 mph 1015.1mb 47f 49f
6:00 9.5ft 11s 18 25 mph 1016.1mb 47f 49f
5:00 10.5ft 14s 18 22 mph 1017.1mb 47f 48f
4:00 10ft 14s 13 18 mph 1018.4mb 47f 48f
3:00 10ft 12s 11 18 mph 1019.7mb 47f 48f
2:00 10ft 12s 18 22 mph 1020.4mb 47f 49f
1:00 10.5ft 13s 16 20 mph 1021.1mb 47f 49f
12:00 10ft 15s 20 25 mph 1021.7mb 47f 50f
lun. 02/08 11:00 11ft 14s 20 25 mph 1022.6mb 47f 50f
10:00 12ft 12s 18 20 mph 1023.5mb 47f 49f
9:00 12ft 14s 13 18 mph 1024.5mb 47f 50f
8:00 12ft 14s 11 16 mph 1025.4mb 47f 49f
7:00 13.5ft 15s 9 13 mph 1026.5mb 47f 49f
6:00 13ft 14s 9 11 mph 1026.7mb 47f 49f
5:00 13ft 15s 9 11 mph 1027.2mb 47f 49f
4:00 13ft 15s 9 11 mph 1027.7mb 47f 49f
3:00 12.5ft 15s 11
mph
1027.5mb 47f 49f
2:00 14ft 15s 13 16 mph 1027.3mb 48f 49f
1:00 12ft 14s 13 16 mph 1027.7mb 48f 49f
12:00 13ft 15s 16 20 mph 1028.2mb 48f 49f
11:00 12.5ft 16s 18 22 mph 1028.1mb 48f 49f
10:00 12ft 15s 18 22 mph 1028.6mb 48f 48f
9:00 13.5ft 15s 20 25 mph 1028.2mb 48f 48f
8:00 13ft 17s 22 27 mph 1028mb 48f 48f
7:00 13ft 16s 25 29 mph 1027.3mb 48f 48f
6:00 14ft 18s 27 34 mph 1027.7mb 48f 47f
5:00 12ft 18s 25 31 mph 1027.7mb 48f 47f
4:00 13ft 17s 27 34 mph 1027.6mb 48f 47f
3:00 14ft 18s 27 34 mph 1027.3mb 48f 47f
2:00 14ft 17s 29 36 mph 1027.2mb 48f 47f
1:00 14ft 18s 31 38 mph 1027mb 48f 47f
12:00 13ft 18s 31 40 mph 1026.7mb 48f 47f
dim. 02/07 11:00 14ft 17s 34 40 mph 1026.6mb 48f 47f
10:00 13.5ft 7s 36 45 mph 1026.6mb 48f 46f
9:00 13ft 8s 36 43 mph 1026.6mb 48f 46f
8:00 13ft 7s 36 45 mph 1026.7mb 48f 47f
7:00 12ft 7s 31 40 mph 1026.9mb 48f 46f
6:00 13ft 7s 34 43 mph 1026.8mb 48f 46f
5:00 13.5ft 10s 34 43 mph 1026.5mb 48f 46f
4:00 15ft 11s 36 45 mph 1025.7mb 48f 47f
3:00 15.5ft 8s 36 43 mph 1026.2mb 48f 47f
2:00 16.5ft 7s 38 49 mph 1025.4mb 48f 46f
1:00 16.5ft 12s 38 47 mph 1025.5mb 48f 47f
12:00 15.5ft 8s 40 49 mph 1025.4mb 48f 46f
11:00 15ft 8s 38 49 mph 1025.3mb 48f 46f
10:00 15ft 8s 40 47 mph 1024.1mb 48f 46f
9:00 14ft 8s 40 49 mph 1023.7mb 48f 45f
8:00 14ft 9s 38 47 mph 1023.9mb 48f 45f
7:00 14ft 7s 36 45 mph 1023.8mb 48f 45f
6:00 13ft 8s 40 49 mph 1023.3mb 48f 45f
5:00 13ft 7s 36 45 mph 1023.8mb 48f 45f
4:00 13ft 7s 34 40 mph 1024.7mb 48f 46f
3:00 12ft 7s 38 45 mph 1023.8mb 48f 46f
2:00 12ft 7s 36 43 mph 1024.4mb 48f 46f
1:00 12ft 6s 34 40 mph 1024.7mb 48f 46f
12:00 11ft 12s 34 43 mph 1025.6mb 48f 46f